sensor_id;sensor_type;location;lat;lon;timestamp;P1;durP1;ratioP1;P2;durP2;ratioP2
57718;SDS011;43561;50.090;18.522;2023-08-08T00:02:07;2.60;;;2.05;;
57718;SDS011;43561;50.090;18.522;2023-08-08T00:12:09;5.45;;;2.00;;
57718;SDS011;43561;50.090;18.522;2023-08-08T00:22:11;4.80;;;2.10;;
57718;SDS011;43561;50.090;18.522;2023-08-08T00:32:13;4.97;;;2.45;;
57718;SDS011;43561;50.090;18.522;2023-08-08T00:42:16;3.00;;;2.28;;
57718;SDS011;43561;50.090;18.522;2023-08-08T00:52:18;1.95;;;1.50;;
57718;SDS011;43561;50.090;18.522;2023-08-08T01:02:20;2.60;;;1.58;;
57718;SDS011;43561;50.090;18.522;2023-08-08T01:12:23;2.17;;;1.60;;
57718;SDS011;43561;50.090;18.522;2023-08-08T01:22:32;3.58;;;1.83;;
57718;SDS011;43561;50.090;18.522;2023-08-08T01:32:39;4.65;;;1.75;;
57718;SDS011;43561;50.090;18.522;2023-08-08T01:42:41;3.08;;;1.65;;
57718;SDS011;43561;50.090;18.522;2023-08-08T01:52:48;2.25;;;1.70;;
57718;SDS011;43561;50.090;18.522;2023-08-08T02:02:50;2.35;;;2.13;;
57718;SDS011;43561;50.090;18.522;2023-08-08T02:12:52;3.13;;;2.17;;
57718;SDS011;43561;50.090;18.522;2023-08-08T02:22:54;6.25;;;3.47;;
57718;SDS011;43561;50.090;18.522;2023-08-08T02:32:56;2.85;;;2.40;;
57718;SDS011;43561;50.090;18.522;2023-08-08T02:43:00;4.53;;;3.17;;
57718;SDS011;43561;50.090;18.522;2023-08-08T02:53:02;3.63;;;2.28;;
57718;SDS011;43561;50.090;18.522;2023-08-08T03:03:09;3.97;;;2.80;;
57718;SDS011;43561;50.090;18.522;2023-08-08T03:13:11;5.90;;;3.67;;
57718;SDS011;43561;50.090;18.522;2023-08-08T03:23:14;7.05;;;5.03;;
57718;SDS011;43561;50.090;18.522;2023-08-08T03:33:16;11.13;;;3.28;;
57718;SDS011;43561;50.090;18.522;2023-08-08T03:43:20;7.22;;;3.40;;
57718;SDS011;43561;50.090;18.522;2023-08-08T03:53:22;4.05;;;3.25;;
57718;SDS011;43561;50.090;18.522;2023-08-08T04:03:24;3.85;;;2.88;;
57718;SDS011;43561;50.090;18.522;2023-08-08T04:13:27;13.52;;;3.65;;
57718;SDS011;43561;50.090;18.522;2023-08-08T04:23:29;8.07;;;3.58;;
57718;SDS011;43561;50.090;18.522;2023-08-08T04:33:31;13.93;;;3.42;;
57718;SDS011;43561;50.090;18.522;2023-08-08T04:43:33;4.75;;;3.70;;
57718;SDS011;43561;50.090;18.522;2023-08-08T04:53:35;8.05;;;3.50;;
57718;SDS011;43561;50.090;18.522;2023-08-08T05:03:37;4.97;;;3.45;;
57718;SDS011;43561;50.090;18.522;2023-08-08T05:13:39;9.73;;;6.22;;
57718;SDS011;43561;50.090;18.522;2023-08-08T05:23:41;4.80;;;4.10;;
57718;SDS011;43561;50.090;18.522;2023-08-08T05:33:43;9.25;;;3.78;;
57718;SDS011;43561;50.090;18.522;2023-08-08T05:43:45;5.97;;;2.78;;
57718;SDS011;43561;50.090;18.522;2023-08-08T05:53:47;4.25;;;3.00;;
57718;SDS011;43561;50.090;18.522;2023-08-08T06:03:49;4.00;;;3.30;;
57718;SDS011;43561;50.090;18.522;2023-08-08T06:13:51;5.28;;;3.25;;
57718;SDS011;43561;50.090;18.522;2023-08-08T06:23:53;6.22;;;3.25;;
57718;SDS011;43561;50.090;18.522;2023-08-08T06:33:55;4.88;;;2.67;;
57718;SDS011;43561;50.090;18.522;2023-08-08T06:43:57;2.83;;;2.20;;
57718;SDS011;43561;50.090;18.522;2023-08-08T06:54:00;10.05;;;2.67;;
57718;SDS011;43561;50.090;18.522;2023-08-08T07:04:02;10.48;;;2.72;;
57718;SDS011;43561;50.090;18.522;2023-08-08T07:14:05;4.65;;;2.85;;
57718;SDS011;43561;50.090;18.522;2023-08-08T07:24:07;3.72;;;2.35;;
57718;SDS011;43561;50.090;18.522;2023-08-08T07:34:13;4.82;;;2.97;;
57718;SDS011;43561;50.090;18.522;2023-08-08T07:44:15;10.25;;;2.83;;
57718;SDS011;43561;50.090;18.522;2023-08-08T07:54:17;6.95;;;2.72;;
57718;SDS011;43561;50.090;18.522;2023-08-08T08:04:19;6.07;;;3.53;;
57718;SDS011;43561;50.090;18.522;2023-08-08T08:14:21;9.20;;;3.35;;
57718;SDS011;43561;50.090;18.522;2023-08-08T08:24:23;4.90;;;2.88;;
57718;SDS011;43561;50.090;18.522;2023-08-08T08:34:25;12.93;;;3.83;;
57718;SDS011;43561;50.090;18.522;2023-08-08T08:44:43;5.20;;;2.40;;
57718;SDS011;43561;50.090;18.522;2023-08-08T08:54:47;5.32;;;2.20;;
57718;SDS011;43561;50.090;18.522;2023-08-08T09:04:49;4.68;;;2.78;;
57718;SDS011;43561;50.090;18.522;2023-08-08T09:14:55;5.60;;;2.88;;
57718;SDS011;43561;50.090;18.522;2023-08-08T09:24:57;3.10;;;1.80;;
57718;SDS011;43561;50.090;18.522;2023-08-08T09:34:59;2.58;;;1.95;;
57718;SDS011;43561;50.090;18.522;2023-08-08T09:45:01;6.97;;;2.55;;
57718;SDS011;43561;50.090;18.522;2023-08-08T09:55:04;2.97;;;2.28;;
57718;SDS011;43561;50.090;18.522;2023-08-08T10:05:07;5.68;;;2.00;;
57718;SDS011;43561;50.090;18.522;2023-08-08T10:15:10;7.38;;;3.30;;
57718;SDS011;43561;50.090;18.522;2023-08-08T10:25:24;2.40;;;1.42;;
57718;SDS011;43561;50.090;18.522;2023-08-08T10:35:34;2.47;;;1.63;;
57718;SDS011;43561;50.090;18.522;2023-08-08T10:45:43;7.95;;;2.45;;
57718;SDS011;43561;50.090;18.522;2023-08-08T10:55:57;2.42;;;1.42;;
57718;SDS011;43561;50.090;18.522;2023-08-08T11:06:00;5.10;;;2.47;;
57718;SDS011;43561;50.090;18.522;2023-08-08T11:16:03;1.48;;;1.38;;
57718;SDS011;43561;50.090;18.522;2023-08-08T11:26:05;6.63;;;2.58;;
57718;SDS011;43561;50.090;18.522;2023-08-08T11:36:10;4.60;;;2.30;;
57718;SDS011;43561;50.090;18.522;2023-08-08T11:46:14;2.80;;;2.25;;
57718;SDS011;43561;50.090;18.522;2023-08-08T11:56:20;10.52;;;2.40;;
57718;SDS011;43561;50.090;18.522;2023-08-08T12:06:22;3.80;;;2.40;;
57718;SDS011;43561;50.090;18.522;2023-08-08T12:16:30;19.95;;;3.22;;
57718;SDS011;43561;50.090;18.522;2023-08-08T12:26:34;4.30;;;2.40;;
57718;SDS011;43561;50.090;18.522;2023-08-08T12:36:37;4.35;;;3.05;;
57718;SDS011;43561;50.090;18.522;2023-08-08T12:46:39;4.10;;;2.47;;
57718;SDS011;43561;50.090;18.522;2023-08-08T12:56:41;3.17;;;2.15;;
57718;SDS011;43561;50.090;18.522;2023-08-08T13:06:43;4.57;;;2.55;;
57718;SDS011;43561;50.090;18.522;2023-08-08T13:16:51;2.70;;;1.70;;
57718;SDS011;43561;50.090;18.522;2023-08-08T13:26:53;5.40;;;2.55;;
57718;SDS011;43561;50.090;18.522;2023-08-08T13:36:55;4.22;;;2.58;;
57718;SDS011;43561;50.090;18.522;2023-08-08T13:46:57;5.15;;;2.42;;
57718;SDS011;43561;50.090;18.522;2023-08-08T13:56:59;6.70;;;2.33;;
57718;SDS011;43561;50.090;18.522;2023-08-08T14:07:01;3.97;;;2.70;;
57718;SDS011;43561;50.090;18.522;2023-08-08T14:17:03;2.75;;;1.85;;
57718;SDS011;43561;50.090;18.522;2023-08-08T14:27:05;4.28;;;2.30;;
57718;SDS011;43561;50.090;18.522;2023-08-08T14:37:06;5.32;;;2.72;;
57718;SDS011;43561;50.090;18.522;2023-08-08T14:47:08;3.50;;;2.90;;
57718;SDS011;43561;50.090;18.522;2023-08-08T14:57:10;5.25;;;3.38;;
57718;SDS011;43561;50.090;18.522;2023-08-08T15:07:12;6.57;;;3.80;;
57718;SDS011;43561;50.090;18.522;2023-08-08T15:17:14;17.00;;;9.52;;
57718;SDS011;43561;50.090;18.522;2023-08-08T15:27:16;5.28;;;4.75;;
57718;SDS011;43561;50.090;18.522;2023-08-08T15:37:18;5.68;;;4.25;;
57718;SDS011;43561;50.090;18.522;2023-08-08T15:47:20;3.65;;;3.20;;
57718;SDS011;43561;50.090;18.522;2023-08-08T15:57:22;3.60;;;3.30;;
57718;SDS011;43561;50.090;18.522;2023-08-08T16:07:24;5.85;;;2.88;;
57718;SDS011;43561;50.090;18.522;2023-08-08T16:17:26;4.15;;;3.65;;
57718;SDS011;43561;50.090;18.522;2023-08-08T16:27:28;6.47;;;3.53;;
57718;SDS011;43561;50.090;18.522;2023-08-08T16:37:30;3.80;;;2.97;;
57718;SDS011;43561;50.090;18.522;2023-08-08T16:47:32;15.73;;;3.78;;
57718;SDS011;43561;50.090;18.522;2023-08-08T16:57:34;9.60;;;2.67;;
57718;SDS011;43561;50.090;18.522;2023-08-08T17:07:36;4.78;;;3.33;;
57718;SDS011;43561;50.090;18.522;2023-08-08T17:17:38;12.82;;;8.15;;
57718;SDS011;43561;50.090;18.522;2023-08-08T17:27:40;7.47;;;3.92;;
57718;SDS011;43561;50.090;18.522;2023-08-08T17:37:42;9.00;;;4.65;;
57718;SDS011;43561;50.090;18.522;2023-08-08T17:47:44;5.70;;;4.13;;
57718;SDS011;43561;50.090;18.522;2023-08-08T17:57:46;7.35;;;4.88;;
57718;SDS011;43561;50.090;18.522;2023-08-08T18:07:48;9.82;;;5.47;;
57718;SDS011;43561;50.090;18.522;2023-08-08T18:17:50;9.15;;;4.28;;
57718;SDS011;43561;50.090;18.522;2023-08-08T18:27:52;4.30;;;3.60;;
57718;SDS011;43561;50.090;18.522;2023-08-08T18:37:54;5.30;;;3.95;;
57718;SDS011;43561;50.090;18.522;2023-08-08T18:47:56;13.07;;;5.13;;
57718;SDS011;43561;50.090;18.522;2023-08-08T18:57:58;6.75;;;4.93;;
57718;SDS011;43561;50.090;18.522;2023-08-08T19:08:00;7.85;;;4.53;;
57718;SDS011;43561;50.090;18.522;2023-08-08T19:18:02;6.95;;;5.22;;
57718;SDS011;43561;50.090;18.522;2023-08-08T19:28:04;7.95;;;5.78;;
57718;SDS011;43561;50.090;18.522;2023-08-08T19:38:06;9.50;;;4.82;;
57718;SDS011;43561;50.090;18.522;2023-08-08T19:48:08;6.85;;;5.40;;
57718;SDS011;43561;50.090;18.522;2023-08-08T19:58:10;7.60;;;4.35;;
57718;SDS011;43561;50.090;18.522;2023-08-08T20:08:12;5.60;;;3.40;;
57718;SDS011;43561;50.090;18.522;2023-08-08T20:18:14;7.43;;;4.45;;
57718;SDS011;43561;50.090;18.522;2023-08-08T20:28:16;8.60;;;3.95;;
57718;SDS011;43561;50.090;18.522;2023-08-08T20:38:18;8.27;;;3.70;;
57718;SDS011;43561;50.090;18.522;2023-08-08T20:48:20;8.68;;;4.45;;
57718;SDS011;43561;50.090;18.522;2023-08-08T20:58:22;4.57;;;3.50;;
57718;SDS011;43561;50.090;18.522;2023-08-08T21:08:24;4.20;;;2.50;;
57718;SDS011;43561;50.090;18.522;2023-08-08T21:18:26;3.88;;;2.10;;
57718;SDS011;43561;50.090;18.522;2023-08-08T21:28:28;4.10;;;2.60;;
57718;SDS011;43561;50.090;18.522;2023-08-08T21:38:31;5.32;;;2.47;;
57718;SDS011;43561;50.090;18.522;2023-08-08T21:48:33;6.30;;;2.85;;
57718;SDS011;43561;50.090;18.522;2023-08-08T21:58:35;4.25;;;2.33;;
57718;SDS011;43561;50.090;18.522;2023-08-08T22:08:49;4.30;;;3.25;;
57718;SDS011;43561;50.090;18.522;2023-08-08T22:19:17;9.77;;;7.13;;
57718;SDS011;43561;50.090;18.522;2023-08-08T22:29:19;15.13;;;8.38;;
57718;SDS011;43561;50.090;18.522;2023-08-08T22:39:22;8.15;;;6.07;;
57718;SDS011;43561;50.090;18.522;2023-08-08T22:49:24;6.43;;;4.10;;
57718;SDS011;43561;50.090;18.522;2023-08-08T22:59:26;9.23;;;3.72;;
57718;SDS011;43561;50.090;18.522;2023-08-08T23:09:34;13.35;;;7.38;;
57718;SDS011;43561;50.090;18.522;2023-08-08T23:19:43;13.60;;;8.48;;
57718;SDS011;43561;50.090;18.522;2023-08-08T23:29:45;12.27;;;8.10;;
57718;SDS011;43561;50.090;18.522;2023-08-08T23:39:47;5.78;;;4.82;;
57718;SDS011;43561;50.090;18.522;2023-08-08T23:49:49;11.65;;;6.57;;
